• pl
  • eng

Awiacja
NEWS
last updated: 12.09.2019 14:49<\/div>
Dear users,
We would like to inform you that from September 2nd a test form of the GAFOR forecast is available on our webpage. Please send your comments and suggestions to gafor@imgw.pl that will contribute to product development.
Click on the bold red name to decode a message. 16:31 20.02.2020
  • WIND
  • SIGNIFICANT EURO
  • SIGNIFICANT
  • SIGMET
  • AIRMET
  • TAF FC
  • TAF FT
  • METAR GG30
  • METAR GG00


METAR EPBY 201530Z 21009KT 180V240 CAVOK 06/M02 Q1018=

METAR EPGD 201530Z 18009KT 9999 SCT025 05/01 Q1015 =

METAR EPKK 201530Z 21004KT 9999 BKN048 04/01 Q1022 =

METAR EPKT 201530Z 18004KT 9999 FEW040 04/M02 Q1021 =

METAR EPLB 201530Z 30004KT 9999 FEW033 04/02 Q1021 =

METAR EPLL 201530Z 16004KT 120V190 9999 FEW024 SCT042 05/02 Q1020 =

METAR EPMO 201530Z 19005KT 9999 SCT025 BKN039 05/00 Q1020 =

METAR EPPO 201530Z 19010KT CAVOK 07/M02 Q1017 =

METAR EPRA 201530Z NIL=

METAR EPRZ 201530Z 29004KT 9999 FEW020CB BKN036 03/01 Q1022 =

METAR EPSC 201530Z 17012KT 9999 BKN016 BKN020 06/03 Q1014 =

METAR EPSY 201530Z 22009KT 9999 SCT033 04/M00 Q1019=

METAR EPWA 201530Z 17003KT 9999 SCT040 04/M00 Q1021 NOSIG=

METAR EPWR 201530Z 20008KT CAVOK 07/M01 Q1019 =

METAR EPZG 201530Z 19010KT 9999 BKN036 08/01 Q1017 =
 METAR EPSY
Location:EPSY
Time:15:30 UTC
Average wind direction:220 °
Mean wind speed:9 knots
Visibility:10 km or more
First layer of clouds:3/8 do 4/8, base 3300 FT
Temperature:4 °C
Dew point:0 °C
QNH:1019 hPa
Awiacja.imgw.pl jest pogodowym serwisem informacyjnym
Instytutu Meteorologii i Gospodarki Wodnej Państwowego Instytutu Badawczego.
Copyright IMGW PIB 2009-2019© Wszelkie prawa zastrzeżone.